sensor_id;sensor_type;location;lat;lon;timestamp;pressure;altitude;pressure_sealevel;temperature;humidity
25638;BME280;13496;51.040;13.680;2023-12-22T00:04:40;97274.28;;;15.61;49.09
25638;BME280;13496;51.040;13.680;2023-12-22T00:09:42;97256.88;;;15.90;50.92
25638;BME280;13496;51.040;13.680;2023-12-22T00:14:43;97257.88;;;16.01;50.08
25638;BME280;13496;51.040;13.680;2023-12-22T00:19:45;97259.84;;;15.93;50.14
25638;BME280;13496;51.040;13.680;2023-12-22T00:24:47;97260.94;;;15.97;51.28
25638;BME280;13496;51.040;13.680;2023-12-22T00:29:49;97245.25;;;15.97;48.96
25638;BME280;13496;51.040;13.680;2023-12-22T00:34:51;97258.13;;;15.99;49.02
25638;BME280;13496;51.040;13.680;2023-12-22T00:39:53;97278.69;;;16.07;51.40
25638;BME280;13496;51.040;13.680;2023-12-22T00:44:54;97273.97;;;15.81;49.40
25638;BME280;13496;51.040;13.680;2023-12-22T00:49:56;97254.72;;;15.99;50.79
25638;BME280;13496;51.040;13.680;2023-12-22T00:54:58;97260.88;;;15.92;50.59
25638;BME280;13496;51.040;13.680;2023-12-22T01:00:00;97278.38;;;15.92;48.98
25638;BME280;13496;51.040;13.680;2023-12-22T01:05:02;97298.03;;;15.83;48.88
25638;BME280;13496;51.040;13.680;2023-12-22T01:10:05;97300.44;;;15.84;48.54
25638;BME280;13496;51.040;13.680;2023-12-22T01:15:07;97298.72;;;15.90;51.09
25638;BME280;13496;51.040;13.680;2023-12-22T01:20:09;97297.25;;;15.82;49.14
25638;BME280;13496;51.040;13.680;2023-12-22T01:25:11;97307.84;;;15.76;48.49
25638;BME280;13496;51.040;13.680;2023-12-22T01:30:13;97303.63;;;15.86;50.05
25638;BME280;13496;51.040;13.680;2023-12-22T01:35:15;97314.44;;;15.66;47.74
25638;BME280;13496;51.040;13.680;2023-12-22T01:40:17;97338.41;;;15.75;48.19
25638;BME280;13496;51.040;13.680;2023-12-22T01:45:19;97331.50;;;15.69;49.60
25638;BME280;13496;51.040;13.680;2023-12-22T01:50:21;97329.06;;;15.56;47.94
25638;BME280;13496;51.040;13.680;2023-12-22T01:55:23;97343.63;;;15.52;47.38
25638;BME280;13496;51.040;13.680;2023-12-22T02:00:25;97346.81;;;15.54;46.97
25638;BME280;13496;51.040;13.680;2023-12-22T02:05:27;97362.38;;;15.48;49.17
25638;BME280;13496;51.040;13.680;2023-12-22T02:10:31;97383.59;;;15.29;46.13
25638;BME280;13496;51.040;13.680;2023-12-22T02:15:33;97377.84;;;15.08;47.56
25638;BME280;13496;51.040;13.680;2023-12-22T02:20:34;97369.81;;;15.10;46.73
25638;BME280;13496;51.040;13.680;2023-12-22T02:25:36;97368.03;;;15.45;50.79
25638;BME280;13496;51.040;13.680;2023-12-22T02:30:51;97382.47;;;15.48;48.44
25638;BME280;13496;51.040;13.680;2023-12-22T02:35:58;97362.03;;;15.57;50.56
25638;BME280;13496;51.040;13.680;2023-12-22T02:41:03;97345.03;;;15.66;51.00
25638;BME280;13496;51.040;13.680;2023-12-22T02:46:13;97362.97;;;15.74;50.27
25638;BME280;13496;51.040;13.680;2023-12-22T02:51:15;97372.53;;;15.68;50.28
25638;BME280;13496;51.040;13.680;2023-12-22T02:56:16;97363.75;;;15.63;49.57
25638;BME280;13496;51.040;13.680;2023-12-22T03:01:18;97365.81;;;15.84;51.56
25638;BME280;13496;51.040;13.680;2023-12-22T03:06:20;97351.81;;;15.79;51.70
25638;BME280;13496;51.040;13.680;2023-12-22T03:11:22;97333.63;;;15.72;51.11
25638;BME280;13496;51.040;13.680;2023-12-22T03:16:23;97322.19;;;15.73;50.86
25638;BME280;13496;51.040;13.680;2023-12-22T03:21:25;97326.38;;;15.74;51.92
25638;BME280;13496;51.040;13.680;2023-12-22T03:26:27;97322.19;;;15.73;50.20
25638;BME280;13496;51.040;13.680;2023-12-22T03:31:29;97332.50;;;15.68;50.48
25638;BME280;13496;51.040;13.680;2023-12-22T03:36:31;97319.41;;;15.56;49.34
25638;BME280;13496;51.040;13.680;2023-12-22T03:41:33;97326.81;;;15.59;50.74
25638;BME280;13496;51.040;13.680;2023-12-22T03:46:35;97332.50;;;15.68;51.06
25638;BME280;13496;51.040;13.680;2023-12-22T03:51:37;97342.06;;;15.74;51.09
25638;BME280;13496;51.040;13.680;2023-12-22T03:56:39;97357.75;;;15.74;51.31
25638;BME280;13496;51.040;13.680;2023-12-22T04:01:41;97343.97;;;15.55;48.83
25638;BME280;13496;51.040;13.680;2023-12-22T04:06:43;97345.78;;;15.43;50.50
25638;BME280;13496;51.040;13.680;2023-12-22T04:11:45;97335.78;;;15.52;50.13
25638;BME280;13496;51.040;13.680;2023-12-22T04:16:47;97325.44;;;15.57;49.63
25638;BME280;13496;51.040;13.680;2023-12-22T04:21:49;97327.72;;;15.65;49.11
25638;BME280;13496;51.040;13.680;2023-12-22T04:26:50;97345.56;;;15.68;50.53
25638;BME280;13496;51.040;13.680;2023-12-22T04:31:52;97342.41;;;15.78;51.70
25638;BME280;13496;51.040;13.680;2023-12-22T04:36:54;97351.03;;;15.66;48.45
25638;BME280;13496;51.040;13.680;2023-12-22T04:41:56;97341.00;;;15.52;47.86
25638;BME280;13496;51.040;13.680;2023-12-22T04:46:57;97341.59;;;15.54;49.53
25638;BME280;13496;51.040;13.680;2023-12-22T04:51:59;97333.16;;;15.52;50.83
25638;BME280;13496;51.040;13.680;2023-12-22T04:57:01;97348.72;;;15.35;47.61
25638;BME280;13496;51.040;13.680;2023-12-22T05:02:03;97351.47;;;15.40;47.12
25638;BME280;13496;51.040;13.680;2023-12-22T05:07:05;97347.94;;;15.58;49.79
25638;BME280;13496;51.040;13.680;2023-12-22T05:12:09;97338.97;;;15.54;49.55
25638;BME280;13496;51.040;13.680;2023-12-22T05:17:11;97348.59;;;15.41;48.37
25638;BME280;13496;51.040;13.680;2023-12-22T05:22:13;97336.91;;;15.44;49.31
25638;BME280;13496;51.040;13.680;2023-12-22T05:27:14;97335.09;;;15.44;49.16
25638;BME280;13496;51.040;13.680;2023-12-22T05:32:16;97341.81;;;15.40;48.37
25638;BME280;13496;51.040;13.680;2023-12-22T05:37:18;97340.31;;;15.44;48.44
25638;BME280;13496;51.040;13.680;2023-12-22T05:42:20;97354.16;;;15.33;47.89
25638;BME280;13496;51.040;13.680;2023-12-22T05:47:22;97353.38;;;15.44;50.69
25638;BME280;13496;51.040;13.680;2023-12-22T05:52:23;97346.44;;;15.38;48.64
25638;BME280;13496;51.040;13.680;2023-12-22T05:57:25;97357.69;;;15.27;49.28
25638;BME280;13496;51.040;13.680;2023-12-22T06:02:27;97343.28;;;15.48;51.28
25638;BME280;13496;51.040;13.680;2023-12-22T06:07:29;97363.59;;;15.34;47.36
25638;BME280;13496;51.040;13.680;2023-12-22T06:12:31;97373.16;;;15.40;47.90
25638;BME280;13496;51.040;13.680;2023-12-22T06:17:33;97379.84;;;15.36;48.13
25638;BME280;13496;51.040;13.680;2023-12-22T06:22:34;97371.69;;;15.44;49.76
25638;BME280;13496;51.040;13.680;2023-12-22T06:27:36;97381.53;;;15.42;49.88
25638;BME280;13496;51.040;13.680;2023-12-22T06:32:38;97373.75;;;15.54;51.05
25638;BME280;13496;51.040;13.680;2023-12-22T06:37:42;97374.63;;;15.48;48.80
25638;BME280;13496;51.040;13.680;2023-12-22T06:42:44;97393.03;;;15.53;49.90
25638;BME280;13496;51.040;13.680;2023-12-22T06:47:46;97372.25;;;15.46;48.73
25638;BME280;13496;51.040;13.680;2023-12-22T06:52:48;97363.28;;;15.54;50.82
25638;BME280;13496;51.040;13.680;2023-12-22T06:57:51;97362.38;;;15.60;49.50
25638;BME280;13496;51.040;13.680;2023-12-22T07:02:53;97353.38;;;15.44;48.47
25638;BME280;13496;51.040;13.680;2023-12-22T07:07:54;97359.66;;;15.55;49.03
25638;BME280;13496;51.040;13.680;2023-12-22T07:12:56;97369.31;;;15.55;47.99
25638;BME280;13496;51.040;13.680;2023-12-22T07:17:58;97366.00;;;15.47;47.53
25638;BME280;13496;51.040;13.680;2023-12-22T07:23:00;97394.50;;;15.49;49.61
25638;BME280;13496;51.040;13.680;2023-12-22T07:28:02;97417.56;;;15.40;47.76
25638;BME280;13496;51.040;13.680;2023-12-22T07:33:05;97439.59;;;15.33;48.65
25638;BME280;13496;51.040;13.680;2023-12-22T07:38:07;97430.09;;;15.50;47.52
25638;BME280;13496;51.040;13.680;2023-12-22T07:43:11;97458.19;;;15.24;48.36
25638;BME280;13496;51.040;13.680;2023-12-22T07:48:12;97447.97;;;15.23;49.85
25638;BME280;13496;51.040;13.680;2023-12-22T07:53:15;97457.19;;;15.25;49.48
25638;BME280;13496;51.040;13.680;2023-12-22T07:58:17;97491.75;;;15.39;50.30
25638;BME280;13496;51.040;13.680;2023-12-22T08:03:19;97505.19;;;15.43;48.44
25638;BME280;13496;51.040;13.680;2023-12-22T08:08:21;97534.19;;;15.05;49.06
25638;BME280;13496;51.040;13.680;2023-12-22T08:13:23;97564.44;;;14.94;47.00
25638;BME280;13496;51.040;13.680;2023-12-22T08:18:24;97556.09;;;14.67;48.66
25638;BME280;13496;51.040;13.680;2023-12-22T08:23:26;97545.06;;;15.01;49.02
25638;BME280;13496;51.040;13.680;2023-12-22T08:28:28;97515.19;;;15.28;52.31
25638;BME280;13496;51.040;13.680;2023-12-22T08:33:30;97521.81;;;15.30;50.03
25638;BME280;13496;51.040;13.680;2023-12-22T08:38:33;97533.94;;;15.55;53.09
25638;BME280;13496;51.040;13.680;2023-12-22T08:43:34;97554.84;;;15.55;51.00
25638;BME280;13496;51.040;13.680;2023-12-22T08:48:36;97555.63;;;15.43;50.95
25638;BME280;13496;51.040;13.680;2023-12-22T08:53:38;97546.69;;;15.63;53.07
25638;BME280;13496;51.040;13.680;2023-12-22T08:58:40;97546.84;;;15.68;52.58
25638;BME280;13496;51.040;13.680;2023-12-22T09:03:41;97555.03;;;15.41;48.82
25638;BME280;13496;51.040;13.680;2023-12-22T09:08:47;97575.97;;;15.53;48.97
25638;BME280;13496;51.040;13.680;2023-12-22T09:13:49;97620.88;;;15.50;51.44
25638;BME280;13496;51.040;13.680;2023-12-22T09:18:51;97631.41;;;15.25;49.21
25638;BME280;13496;51.040;13.680;2023-12-22T09:23:53;97604.69;;;14.86;47.39
25638;BME280;13496;51.040;13.680;2023-12-22T09:28:56;97626.50;;;14.73;47.92
25638;BME280;13496;51.040;13.680;2023-12-22T09:33:58;97620.41;;;14.98;50.08
25638;BME280;13496;51.040;13.680;2023-12-22T09:38:59;97606.06;;;15.25;51.73
25638;BME280;13496;51.040;13.680;2023-12-22T09:44:02;97608.00;;;15.48;50.36
25638;BME280;13496;51.040;13.680;2023-12-22T09:49:06;97603.25;;;15.76;53.40
25638;BME280;13496;51.040;13.680;2023-12-22T09:54:09;97608.16;;;15.54;47.88
25638;BME280;13496;51.040;13.680;2023-12-22T09:59:12;97623.41;;;15.38;47.75
25638;BME280;13496;51.040;13.680;2023-12-22T10:04:14;97597.00;;;15.46;49.79
25638;BME280;13496;51.040;13.680;2023-12-22T10:09:16;97595.84;;;15.24;49.33
25638;BME280;13496;51.040;13.680;2023-12-22T10:14:19;97629.50;;;15.32;47.70
25638;BME280;13496;51.040;13.680;2023-12-22T10:19:23;97621.97;;;15.06;48.64
25638;BME280;13496;51.040;13.680;2023-12-22T10:24:41;97654.16;;;14.99;49.03
25638;BME280;13496;51.040;13.680;2023-12-22T10:29:55;97676.41;;;14.59;47.01
25638;BME280;13496;51.040;13.680;2023-12-22T10:34:57;97668.25;;;14.42;46.30
25638;BME280;13496;51.040;13.680;2023-12-22T10:39:59;97673.56;;;14.35;46.63
25638;BME280;13496;51.040;13.680;2023-12-22T10:45:01;97679.69;;;14.47;49.10
25638;BME280;13496;51.040;13.680;2023-12-22T10:50:03;97676.31;;;14.40;46.83
25638;BME280;13496;51.040;13.680;2023-12-22T10:55:08;97656.88;;;14.86;52.08
25638;BME280;13496;51.040;13.680;2023-12-22T11:00:12;97672.84;;;14.78;47.45
25638;BME280;13496;51.040;13.680;2023-12-22T11:05:15;97680.09;;;14.44;49.13
25638;BME280;13496;51.040;13.680;2023-12-22T11:10:20;97682.09;;;14.74;49.24
25638;BME280;13496;51.040;13.680;2023-12-22T11:15:24;97663.72;;;14.87;47.99
25638;BME280;13496;51.040;13.680;2023-12-22T11:20:27;97659.97;;;15.20;51.52
25638;BME280;13496;51.040;13.680;2023-12-22T11:25:30;97632.13;;;15.32;51.88
25638;BME280;13496;51.040;13.680;2023-12-22T11:30:34;97617.00;;;15.34;51.03
25638;BME280;13496;51.040;13.680;2023-12-22T11:35:36;97619.56;;;15.41;50.07
25638;BME280;13496;51.040;13.680;2023-12-22T11:40:39;97603.09;;;15.40;48.90
25638;BME280;13496;51.040;13.680;2023-12-22T11:45:42;97593.06;;;15.37;48.21
25638;BME280;13496;51.040;13.680;2023-12-22T11:50:44;97589.00;;;15.23;49.65
25638;BME280;13496;51.040;13.680;2023-12-22T11:55:59;97578.78;;;15.40;51.48
25638;BME280;13496;51.040;13.680;2023-12-22T12:01:02;97560.16;;;15.48;51.79
25638;BME280;13496;51.040;13.680;2023-12-22T12:06:14;97583.22;;;15.21;48.05
25638;BME280;13496;51.040;13.680;2023-12-22T12:11:17;97569.16;;;15.52;51.36
25638;BME280;13496;51.040;13.680;2023-12-22T12:16:21;97553.34;;;15.47;48.72
25638;BME280;13496;51.040;13.680;2023-12-22T12:21:23;97550.72;;;15.65;51.89
25638;BME280;13496;51.040;13.680;2023-12-22T12:26:25;97557.66;;;15.71;51.33
25638;BME280;13496;51.040;13.680;2023-12-22T12:31:37;97554.59;;;15.75;51.43
25638;BME280;13496;51.040;13.680;2023-12-22T12:36:39;97566.09;;;15.55;48.17
25638;BME280;13496;51.040;13.680;2023-12-22T12:41:43;97589.53;;;15.32;48.73
25638;BME280;13496;51.040;13.680;2023-12-22T12:46:47;97602.53;;;14.83;46.34
25638;BME280;13496;51.040;13.680;2023-12-22T12:51:49;97593.78;;;14.71;47.11
25638;BME280;13496;51.040;13.680;2023-12-22T12:56:51;97596.66;;;14.88;48.72
25638;BME280;13496;51.040;13.680;2023-12-22T13:01:53;97579.72;;;14.72;47.60
25638;BME280;13496;51.040;13.680;2023-12-22T13:06:55;97584.59;;;14.87;50.91
25638;BME280;13496;51.040;13.680;2023-12-22T13:12:00;97582.63;;;15.00;46.73
25638;BME280;13496;51.040;13.680;2023-12-22T13:17:02;97582.97;;;14.67;48.44
25638;BME280;13496;51.040;13.680;2023-12-22T13:22:04;97595.25;;;14.85;49.11
25638;BME280;13496;51.040;13.680;2023-12-22T13:27:06;97613.31;;;14.87;51.53
25638;BME280;13496;51.040;13.680;2023-12-22T13:32:08;97611.53;;;14.62;50.97
25638;BME280;13496;51.040;13.680;2023-12-22T13:37:10;97598.72;;;14.79;52.12
25638;BME280;13496;51.040;13.680;2023-12-22T13:42:19;97626.25;;;15.00;51.61
25638;BME280;13496;51.040;13.680;2023-12-22T13:47:23;97620.44;;;15.16;51.74
25638;BME280;13496;51.040;13.680;2023-12-22T13:52:29;97618.47;;;15.30;50.66
25638;BME280;13496;51.040;13.680;2023-12-22T13:57:37;97614.25;;;15.47;52.92
25638;BME280;13496;51.040;13.680;2023-12-22T14:02:39;97621.75;;;15.25;50.62
25638;BME280;13496;51.040;13.680;2023-12-22T14:07:43;97621.50;;;15.45;52.96
25638;BME280;13496;51.040;13.680;2023-12-22T14:12:45;97603.00;;;15.47;52.15
25638;BME280;13496;51.040;13.680;2023-12-22T14:17:47;97627.25;;;15.54;51.20
25638;BME280;13496;51.040;13.680;2023-12-22T14:22:49;97623.84;;;15.54;51.37
25638;BME280;13496;51.040;13.680;2023-12-22T14:27:51;97624.75;;;15.59;52.90
25638;BME280;13496;51.040;13.680;2023-12-22T14:32:54;97634.00;;;15.25;49.08
25638;BME280;13496;51.040;13.680;2023-12-22T14:37:56;97616.75;;;15.24;52.70
25638;BME280;13496;51.040;13.680;2023-12-22T14:42:58;97601.97;;;15.48;53.14
25638;BME280;13496;51.040;13.680;2023-12-22T14:48:00;97597.94;;;15.64;52.96
25638;BME280;13496;51.040;13.680;2023-12-22T14:53:02;97599.66;;;15.58;51.97
25638;BME280;13496;51.040;13.680;2023-12-22T14:58:04;97610.72;;;15.72;51.93
25638;BME280;13496;51.040;13.680;2023-12-22T15:03:08;97623.97;;;15.59;52.72
25638;BME280;13496;51.040;13.680;2023-12-22T15:08:10;97609.59;;;15.49;50.67
25638;BME280;13496;51.040;13.680;2023-12-22T15:13:12;97625.00;;;15.39;48.52
25638;BME280;13496;51.040;13.680;2023-12-22T15:18:13;97626.72;;;15.45;52.49
25638;BME280;13496;51.040;13.680;2023-12-22T15:23:15;97618.88;;;15.45;50.73
25638;BME280;13496;51.040;13.680;2023-12-22T15:28:17;97617.91;;;15.10;48.13
25638;BME280;13496;51.040;13.680;2023-12-22T15:33:19;97610.94;;;15.22;50.68
25638;BME280;13496;51.040;13.680;2023-12-22T15:38:21;97597.22;;;14.90;48.02
25638;BME280;13496;51.040;13.680;2023-12-22T15:43:22;97601.06;;;14.87;47.80
25638;BME280;13496;51.040;13.680;2023-12-22T15:48:24;97593.16;;;14.94;48.26
25638;BME280;13496;51.040;13.680;2023-12-22T15:53:26;97612.53;;;15.23;53.03
25638;BME280;13496;51.040;13.680;2023-12-22T15:58:28;97624.06;;;15.34;53.34
25638;BME280;13496;51.040;13.680;2023-12-22T16:03:30;97601.72;;;15.19;50.88
25638;BME280;13496;51.040;13.680;2023-12-22T16:08:32;97615.66;;;14.95;46.85
25638;BME280;13496;51.040;13.680;2023-12-22T16:13:37;97588.44;;;14.84;50.98
25638;BME280;13496;51.040;13.680;2023-12-22T16:18:39;97585.13;;;14.95;51.08
25638;BME280;13496;51.040;13.680;2023-12-22T16:23:41;97593.81;;;15.08;51.50
25638;BME280;13496;51.040;13.680;2023-12-22T16:28:42;97578.75;;;14.91;48.70
25638;BME280;13496;51.040;13.680;2023-12-22T16:33:44;97631.22;;;15.01;51.41
25638;BME280;13496;51.040;13.680;2023-12-22T16:38:46;97629.75;;;14.69;47.30
25638;BME280;13496;51.040;13.680;2023-12-22T16:43:48;97651.47;;;14.63;49.07
25638;BME280;13496;51.040;13.680;2023-12-22T16:48:54;97643.78;;;14.43;48.78
25638;BME280;13496;51.040;13.680;2023-12-22T16:53:56;97668.66;;;14.45;47.93
25638;BME280;13496;51.040;13.680;2023-12-22T16:58:59;97641.16;;;14.18;49.39
25638;BME280;13496;51.040;13.680;2023-12-22T17:04:00;97641.84;;;14.07;48.29
25638;BME280;13496;51.040;13.680;2023-12-22T17:09:02;97636.25;;;14.03;48.93
25638;BME280;13496;51.040;13.680;2023-12-22T17:14:05;97604.41;;;13.94;47.88
25638;BME280;13496;51.040;13.680;2023-12-22T17:19:07;97590.38;;;13.95;47.41
25638;BME280;13496;51.040;13.680;2023-12-22T17:24:09;97619.09;;;13.82;47.24
25638;BME280;13496;51.040;13.680;2023-12-22T17:29:10;97613.59;;;13.65;47.68
25638;BME280;13496;51.040;13.680;2023-12-22T17:34:12;97620.00;;;14.01;50.05
25638;BME280;13496;51.040;13.680;2023-12-22T17:39:14;97630.69;;;13.93;49.64
25638;BME280;13496;51.040;13.680;2023-12-22T17:44:16;97618.94;;;13.77;47.65
25638;BME280;13496;51.040;13.680;2023-12-22T17:49:18;97626.09;;;13.88;47.50
25638;BME280;13496;51.040;13.680;2023-12-22T17:54:20;97641.06;;;14.31;49.12
25638;BME280;13496;51.040;13.680;2023-12-22T17:59:22;97636.97;;;14.42;51.35
25638;BME280;13496;51.040;13.680;2023-12-22T18:04:23;97639.56;;;14.42;49.17
25638;BME280;13496;51.040;13.680;2023-12-22T18:09:26;97636.09;;;14.55;49.79
25638;BME280;13496;51.040;13.680;2023-12-22T18:14:28;97639.84;;;14.34;47.79
25638;BME280;13496;51.040;13.680;2023-12-22T18:19:29;97640.25;;;14.06;48.41
25638;BME280;13496;51.040;13.680;2023-12-22T18:24:31;97666.31;;;14.37;48.92
25638;BME280;13496;51.040;13.680;2023-12-22T18:29:33;97669.03;;;14.49;50.90
25638;BME280;13496;51.040;13.680;2023-12-22T18:34:34;97673.47;;;14.17;46.90
25638;BME280;13496;51.040;13.680;2023-12-22T18:39:36;97673.19;;;14.32;47.53
25638;BME280;13496;51.040;13.680;2023-12-22T18:44:38;97690.78;;;14.36;48.99
25638;BME280;13496;51.040;13.680;2023-12-22T18:49:40;97692.53;;;14.74;52.18
25638;BME280;13496;51.040;13.680;2023-12-22T18:54:42;97686.34;;;14.43;49.74
25638;BME280;13496;51.040;13.680;2023-12-22T18:59:43;97675.75;;;14.88;53.73
25638;BME280;13496;51.040;13.680;2023-12-22T19:04:45;97684.44;;;14.82;51.83
25638;BME280;13496;51.040;13.680;2023-12-22T19:09:47;97687.38;;;14.92;49.92
25638;BME280;13496;51.040;13.680;2023-12-22T19:14:49;97682.53;;;14.96;50.97
25638;BME280;13496;51.040;13.680;2023-12-22T19:19:51;97678.09;;;14.71;47.39
25638;BME280;13496;51.040;13.680;2023-12-22T19:24:53;97697.34;;;14.77;49.81
25638;BME280;13496;51.040;13.680;2023-12-22T19:29:56;97693.06;;;15.08;51.39
25638;BME280;13496;51.040;13.680;2023-12-22T19:34:58;97679.53;;;14.92;51.92
25638;BME280;13496;51.040;13.680;2023-12-22T19:40:00;97675.16;;;14.86;51.05
25638;BME280;13496;51.040;13.680;2023-12-22T19:45:02;97648.09;;;15.06;53.52
25638;BME280;13496;51.040;13.680;2023-12-22T19:50:06;97644.88;;;15.04;52.86
25638;BME280;13496;51.040;13.680;2023-12-22T19:55:08;97657.84;;;14.92;52.03
25638;BME280;13496;51.040;13.680;2023-12-22T20:00:11;97652.44;;;15.12;52.18
25638;BME280;13496;51.040;13.680;2023-12-22T20:05:16;97662.31;;;15.10;50.39
25638;BME280;13496;51.040;13.680;2023-12-22T20:10:17;97674.47;;;15.16;52.07
25638;BME280;13496;51.040;13.680;2023-12-22T20:15:19;97713.47;;;15.17;50.59
25638;BME280;13496;51.040;13.680;2023-12-22T20:20:21;97712.22;;;15.20;53.43
25638;BME280;13496;51.040;13.680;2023-12-22T20:25:23;97701.66;;;15.33;52.49
25638;BME280;13496;51.040;13.680;2023-12-22T20:30:26;97694.16;;;15.18;50.60
25638;BME280;13496;51.040;13.680;2023-12-22T20:35:28;97700.84;;;15.33;53.29
25638;BME280;13496;51.040;13.680;2023-12-22T20:40:29;97697.94;;;15.41;53.93
25638;BME280;13496;51.040;13.680;2023-12-22T20:45:31;97717.03;;;15.41;51.96
25638;BME280;13496;51.040;13.680;2023-12-22T20:50:33;97723.91;;;15.17;49.77
25638;BME280;13496;51.040;13.680;2023-12-22T20:55:35;97722.66;;;15.20;51.22
25638;BME280;13496;51.040;13.680;2023-12-22T21:00:37;97744.28;;;14.84;48.83
25638;BME280;13496;51.040;13.680;2023-12-22T21:05:39;97732.34;;;14.69;49.20
25638;BME280;13496;51.040;13.680;2023-12-22T21:10:41;97718.31;;;14.64;47.74
25638;BME280;13496;51.040;13.680;2023-12-22T21:15:45;97732.94;;;14.96;50.76
25638;BME280;13496;51.040;13.680;2023-12-22T21:20:47;97742.66;;;14.58;48.90
25638;BME280;13496;51.040;13.680;2023-12-22T21:25:48;97735.97;;;14.68;51.17
25638;BME280;13496;51.040;13.680;2023-12-22T21:30:51;97745.09;;;14.46;48.44
25638;BME280;13496;51.040;13.680;2023-12-22T21:35:54;97756.13;;;14.55;49.01
25638;BME280;13496;51.040;13.680;2023-12-22T21:40:55;97740.28;;;14.81;51.97
25638;BME280;13496;51.040;13.680;2023-12-22T21:45:57;97734.31;;;14.74;50.28
25638;BME280;13496;51.040;13.680;2023-12-22T21:51:02;97735.53;;;14.71;49.21
25638;BME280;13496;51.040;13.680;2023-12-22T21:56:04;97740.75;;;14.96;51.46
25638;BME280;13496;51.040;13.680;2023-12-22T22:01:06;97733.66;;;15.04;51.47
25638;BME280;13496;51.040;13.680;2023-12-22T22:06:08;97720.94;;;15.14;53.22
25638;BME280;13496;51.040;13.680;2023-12-22T22:11:10;97738.03;;;15.10;50.97
25638;BME280;13496;51.040;13.680;2023-12-22T22:16:12;97723.00;;;15.05;50.84
25638;BME280;13496;51.040;13.680;2023-12-22T22:21:14;97717.81;;;15.23;52.10
25638;BME280;13496;51.040;13.680;2023-12-22T22:26:16;97740.22;;;15.13;52.27
25638;BME280;13496;51.040;13.680;2023-12-22T22:31:18;97779.84;;;15.10;51.54
25638;BME280;13496;51.040;13.680;2023-12-22T22:36:20;97775.53;;;14.90;49.68
25638;BME280;13496;51.040;13.680;2023-12-22T22:41:21;97764.38;;;14.83;48.65
25638;BME280;13496;51.040;13.680;2023-12-22T22:46:26;97772.38;;;14.88;50.40
25638;BME280;13496;51.040;13.680;2023-12-22T22:51:28;97790.47;;;14.83;49.68
25638;BME280;13496;51.040;13.680;2023-12-22T22:56:30;97794.84;;;14.89;48.97
25638;BME280;13496;51.040;13.680;2023-12-22T23:01:32;97800.59;;;14.73;49.21
25638;BME280;13496;51.040;13.680;2023-12-22T23:06:34;97788.34;;;14.73;50.06
25638;BME280;13496;51.040;13.680;2023-12-22T23:11:36;97780.22;;;14.82;52.57
25638;BME280;13496;51.040;13.680;2023-12-22T23:16:38;97782.06;;;14.81;49.01
25638;BME280;13496;51.040;13.680;2023-12-22T23:21:40;97780.44;;;15.05;52.35
25638;BME280;13496;51.040;13.680;2023-12-22T23:26:42;97803.66;;;14.95;48.79
25638;BME280;13496;51.040;13.680;2023-12-22T23:31:43;97825.53;;;14.62;51.42
25638;BME280;13496;51.040;13.680;2023-12-22T23:36:45;97834.16;;;14.11;47.50
25638;BME280;13496;51.040;13.680;2023-12-22T23:41:47;97825.63;;;13.84;47.83
25638;BME280;13496;51.040;13.680;2023-12-22T23:46:49;97837.06;;;13.76;49.50
25638;BME280;13496;51.040;13.680;2023-12-22T23:51:50;97849.47;;;13.94;48.43
25638;BME280;13496;51.040;13.680;2023-12-22T23:56:52;97839.78;;;14.08;51.45
